createdAt,value
2022-09-12T00:01:11.418Z,14.75
2022-09-12T00:03:38.894Z,13.32
2022-09-12T00:06:23.092Z,15.00
2022-09-12T00:08:50.965Z,17.83
2022-09-12T00:11:18.141Z,15.85
2022-09-12T00:13:44.730Z,14.25
2022-09-12T00:16:32.090Z,17.88
2022-09-12T00:18:59.521Z,15.68
2022-09-12T00:21:27.107Z,16.02
2022-09-12T00:23:54.164Z,20.00
2022-09-12T00:26:22.037Z,17.60
2022-09-12T00:28:49.452Z,19.80
2022-09-12T00:31:18.542Z,20.15
2022-09-12T00:33:45.408Z,17.50
2022-09-12T00:36:24.084Z,17.25
2022-09-12T00:38:54.702Z,18.58
2022-09-12T00:41:27.266Z,16.98
2022-09-12T00:44:16.290Z,17.83
2022-09-12T00:46:47.225Z,19.95
2022-09-12T00:49:16.653Z,18.42
2022-09-12T00:51:51.316Z,19.13
2022-09-12T00:54:22.641Z,20.80
2022-09-12T00:56:52.940Z,18.92
2022-09-12T00:59:27.639Z,19.38
2022-09-12T01:01:55.104Z,18.80
2022-09-12T01:04:25.566Z,19.95
2022-09-12T01:06:52.806Z,20.58
2022-09-12T01:09:22.465Z,19.25
2022-09-12T01:11:51.313Z,19.83
2022-09-12T01:14:18.731Z,21.42
2022-09-12T01:16:47.205Z,23.58
2022-09-12T01:19:38.671Z,22.58
2022-09-12T01:22:20.212Z,20.08
2022-09-12T01:24:59.199Z,21.88
2022-09-12T01:27:28.382Z,25.35
2022-09-12T01:30:22.692Z,27.33
2022-09-12T01:33:22.046Z,24.13
2022-09-12T01:35:57.313Z,24.90
2022-09-12T01:38:36.353Z,27.38
2022-09-12T01:41:44.297Z,27.98
2022-09-12T01:44:38.427Z,23.52
2022-09-12T01:47:24.038Z,26.10
2022-09-12T01:50:07.148Z,24.90
2022-09-12T01:52:39.668Z,24.80
2022-09-12T01:55:13.364Z,27.45
2022-09-12T01:57:45.534Z,23.35
2022-09-12T02:00:13.263Z,25.20
2022-09-12T02:03:03.207Z,27.20
2022-09-12T02:05:38.987Z,23.30
2022-09-12T02:08:14.434Z,23.88
2022-09-12T02:10:47.273Z,23.27
2022-09-12T02:13:20.366Z,23.35
2022-09-12T02:18:19.837Z,19.42
2022-09-12T02:20:49.194Z,21.88
2022-09-12T02:23:28.878Z,23.42
2022-09-12T02:25:59.876Z,21.85
2022-09-12T02:28:33.714Z,20.00
2022-09-12T02:31:19.281Z,26.80
2022-09-12T02:33:45.756Z,19.92
2022-09-12T02:36:25.588Z,23.45
2022-09-12T02:38:52.643Z,24.27
2022-09-12T02:41:20.843Z,24.52
2022-09-12T02:43:50.113Z,22.48
2022-09-12T02:46:23.302Z,26.40
2022-09-12T02:48:49.840Z,22.75
2022-09-12T02:51:21.516Z,24.38
2022-09-12T02:53:50.340Z,24.95
2022-09-12T02:56:29.468Z,24.13
2022-09-12T02:59:02.008Z,22.30
2022-09-12T03:01:53.420Z,24.85
2022-09-12T03:04:47.346Z,20.95
2022-09-12T03:07:31.582Z,23.75
2022-09-12T03:10:24.083Z,22.55
2022-09-12T03:13:11.468Z,20.77
2022-09-12T03:16:11.958Z,18.73
2022-09-12T03:18:55.894Z,22.50
2022-09-12T03:21:31.347Z,20.08
2022-09-12T03:24:04.452Z,24.00
2022-09-12T03:29:05.122Z,21.70
2022-09-12T03:31:31.889Z,23.13
2022-09-12T03:34:00.078Z,20.80
2022-09-12T03:36:28.889Z,27.20
2022-09-12T03:38:56.157Z,22.38
2022-09-12T03:41:22.889Z,21.52
2022-09-12T03:43:49.434Z,17.70
2022-09-12T03:46:15.975Z,20.08
2022-09-12T03:48:42.597Z,22.35
2022-09-12T03:51:10.942Z,21.73
2022-09-12T03:53:37.807Z,19.55
2022-09-12T03:56:11.861Z,22.33
2022-09-12T03:58:38.762Z,25.17
2022-09-12T04:01:12.533Z,22.00
2022-09-12T04:03:43.938Z,19.75
2022-09-12T04:06:12.616Z,19.65
2022-09-12T04:08:39.538Z,16.27
2022-09-12T04:11:09.039Z,21.45
2022-09-12T04:13:36.589Z,19.42
2022-09-12T04:16:04.554Z,18.88
2022-09-12T04:18:31.374Z,18.20
2022-09-12T04:20:58.262Z,21.17
2022-09-12T04:23:25.012Z,15.43
2022-09-12T04:25:59.960Z,19.85
2022-09-12T04:28:29.011Z,19.58
2022-09-12T04:30:56.524Z,18.70
2022-09-12T04:33:23.239Z,19.63
2022-09-12T04:35:50.365Z,17.95
2022-09-12T04:38:16.925Z,16.30
2022-09-12T04:40:43.560Z,19.58
2022-09-12T04:43:14.210Z,16.75
2022-09-12T04:45:41.264Z,16.35
2022-09-12T04:48:07.802Z,17.70
2022-09-12T04:50:34.276Z,17.65
2022-09-12T04:53:00.856Z,18.48
2022-09-12T04:55:27.643Z,18.58
2022-09-12T04:57:54.158Z,16.90
2022-09-12T05:00:20.673Z,20.15
2022-09-12T05:02:47.481Z,19.20
2022-09-12T05:05:14.013Z,15.07
2022-09-12T05:07:40.886Z,18.85
2022-09-12T05:10:08.093Z,16.05
2022-09-12T05:12:34.595Z,15.80
2022-09-12T05:15:01.113Z,14.25
2022-09-12T05:17:29.741Z,15.82
2022-09-12T05:19:56.293Z,14.23
2022-09-12T05:22:22.957Z,12.95
2022-09-12T05:24:50.777Z,14.20
2022-09-12T05:27:17.870Z,15.07
2022-09-12T05:29:44.407Z,16.63
2022-09-12T05:32:12.510Z,17.73
2022-09-12T05:34:40.256Z,14.07
2022-09-12T05:37:06.775Z,11.10
2022-09-12T05:39:33.723Z,10.98
2022-09-12T05:42:00.231Z,11.23
2022-09-12T05:44:26.842Z,13.13
2022-09-12T05:46:53.699Z,15.27
2022-09-12T05:49:21.573Z,14.07
2022-09-12T05:51:48.437Z,12.07
2022-09-12T05:54:18.013Z,13.18
2022-09-12T05:56:45.520Z,12.63
2022-09-12T05:59:15.594Z,13.77
2022-09-12T06:01:42.752Z,11.27
2022-09-12T06:04:09.506Z,12.02
2022-09-12T06:06:39.154Z,14.88
2022-09-12T06:09:06.873Z,13.52
2022-09-12T06:11:35.582Z,13.05
2022-09-12T06:14:02.342Z,15.60
2022-09-12T06:16:31.334Z,11.80
2022-09-12T06:19:02.645Z,12.15
2022-09-12T06:21:31.319Z,15.05
2022-09-12T06:23:59.038Z,13.55
2022-09-12T06:26:26.515Z,14.80
2022-09-12T06:28:56.105Z,14.63
2022-09-12T06:31:29.372Z,11.65
2022-09-12T06:33:57.444Z,11.90
2022-09-12T06:36:27.195Z,14.02
2022-09-12T06:38:58.440Z,12.40
2022-09-12T06:41:26.216Z,10.75
2022-09-12T06:43:53.621Z,11.63
2022-09-12T06:46:21.037Z,12.85
2022-09-12T06:48:48.250Z,13.18
2022-09-12T06:51:17.215Z,11.13
2022-09-12T06:53:45.391Z,11.93
2022-09-12T06:56:13.590Z,14.32
2022-09-12T06:58:41.561Z,9.57
2022-09-12T07:01:19.727Z,10.30
2022-09-12T07:03:55.171Z,9.90
2022-09-12T07:06:24.378Z,9.75
2022-09-12T07:08:51.009Z,9.60
2022-09-12T07:11:23.767Z,9.90
2022-09-12T07:13:53.200Z,8.35
2022-09-12T07:16:20.444Z,9.02
2022-09-12T07:19:09.240Z,7.20
2022-09-12T07:21:39.792Z,8.40
2022-09-12T07:24:09.523Z,7.47
2022-09-12T07:26:36.332Z,6.82
2022-09-12T07:29:32.231Z,8.20
2022-09-12T07:31:49.776Z,8.25
2022-09-12T07:34:17.657Z,7.18
2022-09-12T07:36:44.222Z,7.18
2022-09-12T07:39:10.953Z,7.35
2022-09-12T07:41:37.433Z,6.00
2022-09-12T07:44:06.732Z,8.20
2022-09-12T07:46:33.542Z,7.38
2022-09-12T07:49:01.383Z,12.13
2022-09-12T07:51:29.649Z,6.78
2022-09-12T07:53:56.672Z,7.75
2022-09-12T07:56:29.323Z,9.55
2022-09-12T07:58:56.968Z,7.10
2022-09-12T08:01:23.866Z,8.65
2022-09-12T08:03:55.364Z,10.32
2022-09-12T08:06:25.695Z,8.50
2022-09-12T08:08:57.070Z,11.05
2022-09-12T08:11:25.067Z,8.13
2022-09-12T08:13:55.622Z,7.75
2022-09-12T08:16:25.476Z,9.43
2022-09-12T08:18:52.021Z,6.72
2022-09-12T08:21:25.316Z,8.35
2022-09-12T08:23:54.180Z,7.28
2022-09-12T08:26:20.959Z,7.35
2022-09-12T08:28:48.201Z,8.27
2022-09-12T08:31:17.075Z,8.38
2022-09-12T08:33:44.200Z,6.68
2022-09-12T08:36:15.068Z,8.10
2022-09-12T08:38:43.997Z,7.82
2022-09-12T08:41:14.869Z,8.32
2022-09-12T08:44:07.137Z,7.50
2022-09-12T08:46:45.277Z,7.88
2022-09-12T08:49:18.625Z,8.88
2022-09-12T08:51:45.370Z,10.02
2022-09-12T08:54:39.295Z,7.47
2022-09-12T08:57:06.952Z,7.90
2022-09-12T08:59:42.848Z,8.13
2022-09-12T09:02:27.603Z,10.30
2022-09-12T09:05:17.939Z,8.35
2022-09-12T09:08:13.684Z,9.40
2022-09-12T09:11:13.023Z,8.63
2022-09-12T09:14:17.319Z,9.48
2022-09-12T09:16:46.794Z,8.75
2022-09-12T09:19:30.586Z,9.02
2022-09-12T09:22:06.275Z,8.75
2022-09-12T09:24:56.141Z,8.40
2022-09-12T09:27:40.843Z,11.00
2022-09-12T09:30:19.478Z,10.95
2022-09-12T09:32:50.589Z,11.35
2022-09-12T09:35:19.420Z,9.32
2022-09-12T09:38:00.448Z,9.05
2022-09-12T09:40:37.157Z,8.77
2022-09-12T09:43:24.513Z,8.60
2022-09-12T09:45:53.329Z,9.70
2022-09-12T09:48:25.815Z,11.55
2022-09-12T09:50:52.867Z,8.88
2022-09-12T09:53:31.208Z,11.38
2022-09-12T09:56:02.416Z,11.48
2022-09-12T09:58:34.373Z,9.77
2022-09-12T10:01:21.173Z,8.67
2022-09-12T10:03:53.107Z,9.18
2022-09-12T10:06:19.813Z,10.90
2022-09-12T10:08:48.588Z,9.43
2022-09-12T10:11:28.773Z,12.60
2022-09-12T10:14:03.189Z,8.63
2022-09-12T10:16:29.666Z,8.38
2022-09-12T10:18:58.630Z,9.20
2022-09-12T10:21:30.228Z,9.50
2022-09-12T10:24:22.776Z,8.52
2022-09-12T10:26:56.801Z,8.38
2022-09-12T10:29:33.627Z,9.02
2022-09-12T10:32:04.931Z,9.05
2022-09-12T10:34:37.147Z,10.32
2022-09-12T10:37:09.987Z,9.85
2022-09-12T10:42:05.860Z,10.52
2022-09-12T10:44:34.748Z,9.15
2022-09-12T10:47:20.312Z,11.57
2022-09-12T10:49:46.947Z,12.48
2022-09-12T10:52:18.256Z,10.30
2022-09-12T10:54:45.411Z,11.70
2022-09-12T10:57:22.965Z,14.40
2022-09-12T10:59:55.786Z,14.63
2022-09-12T11:02:59.216Z,11.63
2022-09-12T11:08:31.706Z,10.73
2022-09-12T11:11:13.808Z,10.23
2022-09-12T11:13:50.614Z,10.48
2022-09-12T11:16:43.046Z,12.95
2022-09-12T11:19:31.321Z,8.23
2022-09-12T11:22:22.042Z,7.43
2022-09-12T11:25:12.323Z,7.05
2022-09-12T11:27:50.916Z,7.35
2022-09-12T11:30:18.106Z,7.78
2022-09-12T11:32:56.452Z,6.80
2022-09-12T11:35:27.970Z,6.55
2022-09-12T11:38:00.436Z,7.10
2022-09-12T11:40:56.582Z,5.75
2022-09-12T11:43:33.330Z,4.85
2022-09-12T11:46:10.312Z,5.22
2022-09-12T11:49:03.107Z,4.35
2022-09-12T11:51:39.853Z,5.15
2022-09-12T11:54:36.200Z,5.38
2022-09-12T11:57:18.548Z,6.70
2022-09-12T12:02:36.809Z,5.32
2022-09-12T12:05:06.571Z,4.55
2022-09-12T12:07:45.642Z,7.45
2022-09-12T12:10:27.469Z,4.75
2022-09-12T12:12:56.232Z,5.03
2022-09-12T12:15:25.129Z,4.30
2022-09-12T12:18:17.604Z,4.05
2022-09-12T12:23:31.366Z,5.15
2022-09-12T12:26:00.427Z,4.85
2022-09-12T12:28:42.269Z,4.57
2022-09-12T12:31:10.620Z,5.18
2022-09-12T12:33:37.220Z,4.43
2022-09-12T12:36:09.957Z,4.90
2022-09-12T12:38:41.107Z,5.90
2022-09-12T12:41:16.742Z,4.05
2022-09-12T12:43:54.564Z,4.68
2022-09-12T12:46:22.685Z,4.30
2022-09-12T12:49:11.194Z,4.20
2022-09-12T12:51:43.815Z,4.70
2022-09-12T12:54:28.801Z,3.70
2022-09-12T12:57:13.398Z,3.90
2022-09-12T13:00:27.815Z,3.30
2022-09-12T13:03:06.633Z,3.45
2022-09-12T13:05:49.187Z,3.38
2022-09-12T13:08:18.731Z,4.00
2022-09-12T13:11:08.329Z,3.17
2022-09-12T13:13:41.645Z,3.30
2022-09-12T13:16:11.009Z,3.15
2022-09-12T13:18:49.638Z,5.15
2022-09-12T13:21:18.017Z,3.85
2022-09-12T13:23:45.311Z,3.15
2022-09-12T13:26:23.222Z,4.15
2022-09-12T13:28:51.534Z,3.58
2022-09-12T13:31:25.555Z,3.00
2022-09-12T13:33:58.980Z,3.00
2022-09-12T13:36:31.549Z,1.90
2022-09-12T13:39:27.353Z,2.08
2022-09-12T13:42:03.290Z,2.22
2022-09-12T13:44:32.923Z,2.13
2022-09-12T13:47:01.824Z,2.10
2022-09-12T13:49:37.890Z,3.03
2022-09-12T13:52:04.362Z,3.97
2022-09-12T13:54:32.978Z,2.22
2022-09-12T13:56:59.898Z,1.67
2022-09-12T13:59:26.482Z,1.83
2022-09-12T14:01:53.091Z,1.75
2022-09-12T14:04:44.173Z,1.83
2022-09-12T14:07:20.400Z,1.67
2022-09-12T14:09:55.022Z,2.00
2022-09-12T14:12:25.970Z,2.53
2022-09-12T14:14:53.512Z,1.73
2022-09-12T14:17:39.681Z,4.50
2022-09-12T14:20:18.720Z,1.95
2022-09-12T14:22:49.346Z,2.20
2022-09-12T14:25:20.678Z,1.80
2022-09-12T14:27:52.581Z,2.10
2022-09-12T14:30:34.342Z,5.25
2022-09-12T14:33:03.695Z,1.95
2022-09-12T14:35:30.704Z,2.03
2022-09-12T14:37:57.287Z,2.97
2022-09-12T14:40:24.174Z,1.67
2022-09-12T14:42:53.102Z,2.53
2022-09-12T14:45:30.974Z,1.80
2022-09-12T14:47:58.925Z,4.70
2022-09-12T14:50:29.221Z,2.22
2022-09-12T14:53:23.911Z,1.58
2022-09-12T14:55:59.546Z,1.40
2022-09-12T14:58:28.289Z,2.08
2022-09-12T15:00:59.001Z,1.88
2022-09-12T15:03:32.228Z,5.50
2022-09-12T15:06:00.166Z,2.08
2022-09-12T15:08:26.914Z,2.58
2022-09-12T15:10:53.767Z,2.05
2022-09-12T15:13:23.434Z,2.03
2022-09-12T15:15:53.572Z,2.10
2022-09-12T15:18:21.963Z,2.60
2022-09-12T15:20:52.919Z,3.25
2022-09-12T15:23:43.163Z,2.25
2022-09-12T15:26:13.365Z,2.35
2022-09-12T15:28:40.014Z,2.17
2022-09-12T15:31:12.752Z,3.00
2022-09-12T15:33:39.553Z,2.03
2022-09-12T15:36:14.438Z,2.38
2022-09-12T15:38:40.985Z,2.45
2022-09-12T15:41:19.448Z,3.40
2022-09-12T15:43:47.177Z,5.00
2022-09-12T15:46:15.294Z,3.15
2022-09-12T15:48:41.915Z,2.85
2022-09-12T15:51:20.198Z,4.15
2022-09-12T15:53:48.514Z,2.05
2022-09-12T15:56:17.436Z,2.67
2022-09-12T15:58:57.595Z,2.05
2022-09-12T16:01:24.684Z,2.83
2022-09-12T16:03:51.401Z,2.55
2022-09-12T16:06:17.957Z,2.10
2022-09-12T16:08:44.626Z,3.83
2022-09-12T16:11:18.379Z,4.55
2022-09-12T16:13:45.031Z,3.60
2022-09-12T16:16:11.650Z,2.08
2022-09-12T16:18:41.983Z,4.15
2022-09-12T16:21:12.757Z,1.92
2022-09-12T16:23:45.802Z,3.75
2022-09-12T16:26:12.347Z,1.88
2022-09-12T16:28:39.261Z,1.80
2022-09-12T16:31:08.904Z,2.05
2022-09-12T16:33:38.332Z,1.92
2022-09-12T16:36:10.506Z,2.08
2022-09-12T16:38:48.502Z,1.85
2022-09-12T16:41:17.100Z,2.45
2022-09-12T16:43:44.439Z,2.83
2022-09-12T16:46:13.749Z,4.40
2022-09-12T16:48:50.879Z,3.42
2022-09-12T16:51:21.328Z,1.77
2022-09-12T16:53:48.791Z,1.67
2022-09-12T16:56:15.500Z,2.13
2022-09-12T16:58:42.450Z,4.72
2022-09-12T17:01:21.370Z,2.20
2022-09-12T17:03:48.153Z,5.30
2022-09-12T17:06:19.012Z,3.20
2022-09-12T17:08:48.425Z,3.33
2022-09-12T17:11:16.620Z,1.55
2022-09-12T17:14:04.449Z,1.70
2022-09-12T17:16:34.154Z,2.85
2022-09-12T17:19:00.987Z,2.25
2022-09-12T17:21:27.670Z,1.60
2022-09-12T17:23:54.411Z,2.92
2022-09-12T17:26:21.005Z,1.65
2022-09-12T17:28:47.594Z,1.45
2022-09-12T17:31:15.041Z,1.63
2022-09-12T17:33:42.103Z,1.70
2022-09-12T17:36:15.337Z,1.75
2022-09-12T17:38:43.545Z,3.10
2022-09-12T17:41:19.186Z,4.45
2022-09-12T17:43:47.688Z,2.45
2022-09-12T17:46:14.802Z,2.60
2022-09-12T17:48:41.831Z,4.43
2022-09-12T17:51:13.581Z,2.40
2022-09-12T17:53:43.044Z,2.78
2022-09-12T17:56:11.036Z,5.53
2022-09-12T17:58:37.796Z,4.32
2022-09-12T18:01:25.432Z,3.60
2022-09-12T18:03:56.714Z,3.35
2022-09-12T18:06:24.486Z,4.15
2022-09-12T18:08:51.035Z,3.50
2022-09-12T18:11:17.703Z,3.65
2022-09-12T18:13:44.696Z,3.38
2022-09-12T18:16:13.864Z,2.75
2022-09-12T18:18:40.617Z,5.75
2022-09-12T18:21:10.371Z,4.00
2022-09-12T18:23:37.126Z,2.90
2022-09-12T18:26:09.717Z,4.40
2022-09-12T18:28:39.076Z,4.03
2022-09-12T18:31:11.247Z,3.33
2022-09-12T18:33:38.035Z,7.78
2022-09-12T18:36:06.026Z,4.30
2022-09-12T18:38:33.175Z,2.90
2022-09-12T18:41:08.270Z,2.75
2022-09-12T18:43:35.303Z,3.97
2022-09-12T18:46:10.435Z,3.55
2022-09-12T18:48:37.197Z,2.45
2022-09-12T18:51:08.102Z,2.20
2022-09-12T18:53:36.783Z,4.70
2022-09-12T18:56:04.772Z,2.47
2022-09-12T18:58:31.251Z,3.60
2022-09-12T19:00:58.647Z,5.55
2022-09-12T19:03:25.261Z,4.30
2022-09-12T19:05:52.139Z,6.10
2022-09-12T19:08:18.674Z,3.67
2022-09-12T19:10:45.260Z,2.50
2022-09-12T19:13:11.766Z,3.92
2022-09-12T19:15:41.363Z,3.65
2022-09-12T19:18:08.769Z,4.35
2022-09-12T19:20:36.602Z,5.57
2022-09-12T19:23:03.128Z,4.03
2022-09-12T19:25:29.677Z,3.08
2022-09-12T19:27:56.199Z,2.47
2022-09-12T19:30:22.716Z,5.22
2022-09-12T19:32:49.199Z,4.18
2022-09-12T19:35:15.857Z,4.43
2022-09-12T19:37:42.362Z,2.78
2022-09-12T19:40:09.258Z,5.18
2022-09-12T19:42:35.851Z,3.05
2022-09-12T19:45:02.405Z,2.10
2022-09-12T19:47:29.423Z,4.20
2022-09-12T19:49:55.917Z,4.65
2022-09-12T19:52:22.476Z,3.70
2022-09-12T19:54:49.004Z,5.50
2022-09-12T19:57:15.502Z,3.55
2022-09-12T19:59:42.067Z,3.17
2022-09-12T20:02:08.679Z,6.25
2022-09-12T20:04:35.306Z,2.85
2022-09-12T20:07:01.874Z,7.38
2022-09-12T20:09:28.337Z,4.50
2022-09-12T20:11:54.843Z,2.78
2022-09-12T20:14:22.225Z,3.80
2022-09-12T20:16:48.727Z,4.30
2022-09-12T20:19:15.195Z,4.13
2022-09-12T20:21:41.744Z,3.53
2022-09-12T20:24:13.688Z,3.55
2022-09-12T20:26:40.877Z,3.45
2022-09-12T20:29:08.283Z,3.47
2022-09-12T20:31:36.831Z,4.57
2022-09-12T20:34:04.595Z,3.55
2022-09-12T20:36:31.196Z,4.55
2022-09-12T20:39:02.598Z,3.13
2022-09-12T20:41:31.389Z,4.97
2022-09-12T20:43:58.067Z,3.65
2022-09-12T20:46:26.290Z,3.25
2022-09-12T20:48:52.936Z,3.90
2022-09-12T20:51:21.147Z,6.25
2022-09-12T20:53:48.600Z,6.22
2022-09-12T20:56:15.310Z,4.30
2022-09-12T20:58:44.285Z,3.88
2022-09-12T21:01:12.695Z,3.38
2022-09-12T21:03:40.168Z,5.65
2022-09-12T21:06:08.119Z,4.40
2022-09-12T21:08:35.726Z,4.57
2022-09-12T21:11:02.880Z,5.30
2022-09-12T21:13:29.519Z,3.78
2022-09-12T21:16:24.260Z,5.95
2022-09-12T21:18:56.721Z,5.97
2022-09-12T21:21:23.866Z,6.80
2022-09-12T21:23:55.280Z,4.82
2022-09-12T21:26:21.808Z,4.25
2022-09-12T21:28:48.418Z,5.72
2022-09-12T21:31:15.122Z,4.65
2022-09-12T21:33:41.729Z,5.25
2022-09-12T21:36:08.847Z,6.93
2022-09-12T21:38:35.399Z,5.78
2022-09-12T21:41:06.673Z,4.82
2022-09-12T21:43:33.403Z,4.72
2022-09-12T21:46:01.214Z,6.97
2022-09-12T21:48:28.221Z,5.25
2022-09-12T21:50:54.923Z,4.43
2022-09-12T21:53:21.577Z,4.78
2022-09-12T21:55:48.297Z,8.05
2022-09-12T21:58:14.782Z,4.13
2022-09-12T22:00:42.287Z,6.25
2022-09-12T22:03:10.419Z,5.10
2022-09-12T22:05:40.138Z,4.35
2022-09-12T22:08:08.017Z,4.20
2022-09-12T22:10:35.480Z,7.22
2022-09-12T22:13:02.424Z,3.85
2022-09-12T22:15:44.106Z,4.82
2022-09-12T22:18:10.827Z,3.72
2022-09-12T22:20:37.376Z,3.58
2022-09-12T22:23:24.786Z,4.18
2022-09-12T22:25:55.195Z,6.65
2022-09-12T22:28:21.710Z,4.10
2022-09-12T22:30:48.756Z,6.05
2022-09-12T22:33:15.338Z,4.57
2022-09-12T22:35:42.500Z,4.40
2022-09-12T22:38:09.233Z,4.00
2022-09-12T22:40:35.826Z,4.40
2022-09-12T22:43:02.414Z,7.40
2022-09-12T22:45:28.954Z,5.50
2022-09-12T22:47:59.182Z,5.43
2022-09-12T22:50:27.635Z,6.35
2022-09-12T22:52:54.185Z,4.78
2022-09-12T22:55:20.677Z,4.95
2022-09-12T22:57:47.309Z,5.30
2022-09-12T23:00:14.926Z,4.35
2022-09-12T23:02:41.502Z,7.43
2022-09-12T23:05:08.326Z,5.78
2022-09-12T23:07:34.840Z,4.82
2022-09-12T23:10:01.386Z,7.07
2022-09-12T23:12:27.901Z,5.93
2022-09-12T23:14:54.367Z,6.03
2022-09-12T23:17:20.894Z,7.47
2022-09-12T23:19:47.423Z,4.80
2022-09-12T23:22:14.018Z,5.28
2022-09-12T23:24:40.494Z,6.32
2022-09-12T23:27:07.162Z,5.90
2022-09-12T23:29:35.411Z,5.65
2022-09-12T23:32:03.509Z,6.05
2022-09-12T23:34:30.092Z,4.82
2022-09-12T23:36:56.893Z,4.90
2022-09-12T23:39:23.469Z,5.85
2022-09-12T23:41:50.527Z,5.70
2022-09-12T23:44:17.023Z,5.78
2022-09-12T23:46:43.603Z,5.90
2022-09-12T23:49:10.083Z,8.30
2022-09-12T23:51:36.757Z,5.47
2022-09-12T23:54:03.385Z,5.13
2022-09-12T23:56:29.969Z,4.70
2022-09-12T23:58:56.436Z,5.25
